createdAt,value
2022-09-23T00:01:07.646Z,1.83
2022-09-23T00:03:37.118Z,2.80
2022-09-23T00:06:05.645Z,2.50
2022-09-23T00:08:33.201Z,3.37
2022-09-23T00:11:04.763Z,2.03
2022-09-23T00:13:32.097Z,1.80
2022-09-23T00:16:02.634Z,1.97
2022-09-23T00:18:29.970Z,1.70
2022-09-23T00:20:57.428Z,1.90
2022-09-23T00:23:24.849Z,2.10
2022-09-23T00:25:56.480Z,1.80
2022-09-23T00:28:23.879Z,1.73
2022-09-23T00:30:51.252Z,2.03
2022-09-23T00:33:19.981Z,2.40
2022-09-23T00:35:47.688Z,1.80
2022-09-23T00:38:15.152Z,2.60
2022-09-23T00:40:43.665Z,2.10
2022-09-23T00:43:12.158Z,2.27
2022-09-23T00:45:39.834Z,3.43
2022-09-23T00:48:10.009Z,2.07
2022-09-23T00:50:40.769Z,1.77
2022-09-23T00:53:09.712Z,2.97
2022-09-23T00:55:39.677Z,2.00
2022-09-23T00:58:08.396Z,2.53
2022-09-23T01:00:35.730Z,2.93
2022-09-23T01:03:04.994Z,1.83
2022-09-23T01:05:33.013Z,1.50
2022-09-23T01:08:02.855Z,1.90
2022-09-23T01:10:34.564Z,2.23
2022-09-23T01:13:09.164Z,2.10
2022-09-23T01:15:40.521Z,4.90
2022-09-23T01:18:12.521Z,2.20
2022-09-23T01:20:44.754Z,1.87
2022-09-23T01:23:23.805Z,2.67
2022-09-23T01:26:06.851Z,1.93
2022-09-23T01:28:49.475Z,2.20
2022-09-23T01:31:21.969Z,4.87
2022-09-23T01:33:53.104Z,4.23
2022-09-23T01:36:24.534Z,3.70
2022-09-23T01:38:58.335Z,4.00
2022-09-23T01:41:47.157Z,2.23
2022-09-23T01:44:18.367Z,4.20
2022-09-23T01:46:50.576Z,4.03
2022-09-23T01:49:21.040Z,3.37
2022-09-23T01:51:50.251Z,5.60
2022-09-23T01:54:20.890Z,3.33
2022-09-23T01:56:51.865Z,3.87
2022-09-23T01:59:21.516Z,2.17
2022-09-23T02:01:53.772Z,4.77
2022-09-23T02:04:23.568Z,2.17
2022-09-23T02:06:53.214Z,3.43
2022-09-23T02:09:24.608Z,4.30
2022-09-23T02:11:52.655Z,3.17
2022-09-23T02:14:22.380Z,4.00
2022-09-23T02:16:52.480Z,2.73
2022-09-23T02:19:23.172Z,3.00
2022-09-23T02:21:52.145Z,3.40
2022-09-23T02:24:20.861Z,3.33
2022-09-23T02:26:50.782Z,2.93
2022-09-23T02:29:20.474Z,3.37
2022-09-23T02:31:54.774Z,4.60
2022-09-23T02:34:28.603Z,4.10
2022-09-23T02:37:03.433Z,5.33
2022-09-23T02:39:34.579Z,6.40
2022-09-23T02:42:05.174Z,3.97
2022-09-23T02:44:32.961Z,4.13
2022-09-23T02:47:00.401Z,4.53
2022-09-23T02:49:30.077Z,3.07
2022-09-23T02:51:58.265Z,5.47
2022-09-23T02:54:26.843Z,7.43
2022-09-23T02:56:54.536Z,7.30
2022-09-23T02:59:23.260Z,4.27
2022-09-23T03:02:14.372Z,4.77
2022-09-23T03:04:47.757Z,4.23
2022-09-23T03:07:17.539Z,4.67
2022-09-23T03:09:49.304Z,4.73
2022-09-23T03:12:22.217Z,4.80
2022-09-23T03:14:53.801Z,4.10
2022-09-23T03:17:22.746Z,5.10
2022-09-23T03:19:54.362Z,6.20
2022-09-23T03:22:23.934Z,7.83
2022-09-23T03:24:54.032Z,4.87
2022-09-23T03:27:23.999Z,4.13
2022-09-23T03:29:53.355Z,5.10
2022-09-23T03:32:22.125Z,5.87
2022-09-23T03:34:52.306Z,4.47
2022-09-23T03:37:22.496Z,5.30
2022-09-23T03:39:52.567Z,4.70
2022-09-23T03:42:21.377Z,8.33
2022-09-23T03:44:49.296Z,6.83
2022-09-23T03:47:18.492Z,6.07
2022-09-23T03:49:48.255Z,14.37
2022-09-23T03:52:17.305Z,8.60
2022-09-23T03:54:44.714Z,8.20
2022-09-23T03:57:13.065Z,8.13
2022-09-23T03:59:40.795Z,11.63
2022-09-23T04:02:08.515Z,13.90
2022-09-23T04:04:36.904Z,14.30
2022-09-23T04:07:04.702Z,11.60
2022-09-23T04:09:33.461Z,13.47
2022-09-23T04:12:01.020Z,10.17
2022-09-23T04:14:28.398Z,12.97
2022-09-23T04:16:55.742Z,9.33
2022-09-23T04:19:23.140Z,7.77
2022-09-23T04:21:50.608Z,5.67
2022-09-23T04:24:18.271Z,4.30
2022-09-23T04:26:46.917Z,5.00
2022-09-23T04:29:14.482Z,4.57
2022-09-23T04:31:41.836Z,6.53
2022-09-23T04:34:10.107Z,9.90
2022-09-23T04:36:37.577Z,4.30
2022-09-23T04:39:05.594Z,6.30
2022-09-23T04:41:32.988Z,6.90
2022-09-23T04:44:02.154Z,4.50
2022-09-23T04:46:29.766Z,6.60
2022-09-23T04:48:57.122Z,4.43
2022-09-23T04:51:25.217Z,4.20
2022-09-23T04:53:53.773Z,3.37
2022-09-23T04:56:22.234Z,5.50
2022-09-23T04:58:50.485Z,5.37
2022-09-23T05:01:20.018Z,4.10
2022-09-23T05:03:47.601Z,4.37
2022-09-23T05:06:15.490Z,3.67
2022-09-23T05:08:43.346Z,3.27
2022-09-23T05:11:10.672Z,3.97
2022-09-23T05:13:38.005Z,3.63
2022-09-23T05:16:08.219Z,4.10
2022-09-23T05:18:37.670Z,3.83
2022-09-23T05:21:05.436Z,4.00
2022-09-23T05:23:32.790Z,4.40
2022-09-23T05:26:01.081Z,4.40
2022-09-23T05:28:29.899Z,4.47
2022-09-23T05:31:02.881Z,4.43
2022-09-23T05:33:30.331Z,4.47
2022-09-23T05:35:59.008Z,4.40
2022-09-23T05:38:26.484Z,9.40
2022-09-23T05:40:57.519Z,4.57
2022-09-23T05:43:25.164Z,3.70
2022-09-23T05:45:52.529Z,4.47
2022-09-23T05:48:20.134Z,3.77
2022-09-23T05:50:50.846Z,5.40
2022-09-23T05:53:19.499Z,3.60
2022-09-23T05:55:47.090Z,3.90
2022-09-23T05:58:14.557Z,3.63
2022-09-23T06:00:42.528Z,7.53
2022-09-23T06:03:13.109Z,3.57
2022-09-23T06:05:40.585Z,6.60
2022-09-23T06:08:08.307Z,4.13
2022-09-23T06:10:38.439Z,3.73
2022-09-23T06:13:05.771Z,4.63
2022-09-23T06:15:33.590Z,3.87
2022-09-23T06:18:01.273Z,7.30
2022-09-23T06:20:28.700Z,6.20
2022-09-23T06:22:56.744Z,5.30
2022-09-23T06:25:24.203Z,5.00
2022-09-23T06:27:55.858Z,5.33
2022-09-23T06:30:24.086Z,4.27
2022-09-23T06:32:52.094Z,5.10
2022-09-23T06:35:27.018Z,4.63
2022-09-23T06:37:57.949Z,6.10
2022-09-23T06:40:25.708Z,6.50
2022-09-23T06:42:59.381Z,5.53
2022-09-23T06:45:27.056Z,5.60
2022-09-23T06:47:56.160Z,5.07
2022-09-23T06:50:24.495Z,3.70
2022-09-23T06:52:54.823Z,5.93
2022-09-23T06:55:22.561Z,4.63
2022-09-23T06:57:50.108Z,7.10
2022-09-23T07:00:19.088Z,4.83
2022-09-23T07:02:47.046Z,6.07
2022-09-23T07:05:16.260Z,4.83
2022-09-23T07:07:43.952Z,3.93
2022-09-23T07:10:11.989Z,3.67
2022-09-23T07:12:39.536Z,3.63
2022-09-23T07:15:07.384Z,4.70
2022-09-23T07:17:37.114Z,3.47
2022-09-23T07:20:04.738Z,3.10
2022-09-23T07:22:32.191Z,2.30
2022-09-23T07:24:59.604Z,4.30
2022-09-23T07:27:27.785Z,3.77
2022-09-23T07:29:55.112Z,3.43
2022-09-23T07:32:23.461Z,1.87
2022-09-23T07:34:53.724Z,4.80
2022-09-23T07:37:21.061Z,2.07
2022-09-23T07:39:48.476Z,3.03
2022-09-23T07:42:15.913Z,2.30
2022-09-23T07:44:47.682Z,2.10
2022-09-23T07:47:17.648Z,2.27
2022-09-23T07:49:44.988Z,1.60
2022-09-23T07:52:13.653Z,3.17
2022-09-23T07:54:41.044Z,1.83
2022-09-23T07:57:08.389Z,2.37
2022-09-23T07:59:35.839Z,1.93
2022-09-23T08:02:03.269Z,2.97
2022-09-23T08:04:31.624Z,2.33
2022-09-23T08:07:00.044Z,2.70
2022-09-23T08:09:29.974Z,3.53
2022-09-23T08:11:57.317Z,1.97
2022-09-23T08:14:24.904Z,3.13
2022-09-23T08:16:52.355Z,3.40
2022-09-23T08:19:19.803Z,2.60
2022-09-23T08:21:47.643Z,2.33
2022-09-23T08:24:16.322Z,1.97
2022-09-23T08:26:45.359Z,2.57
2022-09-23T08:29:13.409Z,3.43
2022-09-23T08:31:40.812Z,1.60
2022-09-23T08:34:08.537Z,1.70
2022-09-23T08:36:36.100Z,1.30
2022-09-23T08:39:03.480Z,1.30
2022-09-23T08:41:36.232Z,2.60
2022-09-23T08:44:09.083Z,1.43
2022-09-23T08:46:38.653Z,1.47
2022-09-23T08:49:07.634Z,2.00
2022-09-23T08:51:37.136Z,1.37
2022-09-23T08:54:04.671Z,2.50
2022-09-23T08:56:35.461Z,2.07
2022-09-23T08:59:07.393Z,1.20
2022-09-23T09:01:40.198Z,1.40
2022-09-23T09:04:15.182Z,2.87
2022-09-23T09:06:53.068Z,2.23
2022-09-23T09:09:23.349Z,0.90
2022-09-23T09:11:52.592Z,1.00
2022-09-23T09:14:23.256Z,4.43
2022-09-23T09:16:59.933Z,2.30
2022-09-23T09:19:36.689Z,5.07
2022-09-23T09:22:05.967Z,3.70
2022-09-23T09:24:35.670Z,2.50
2022-09-23T09:27:10.145Z,1.50
2022-09-23T09:29:39.877Z,1.37
2022-09-23T09:32:16.015Z,1.03
2022-09-23T09:34:46.689Z,3.30
2022-09-23T09:37:19.176Z,1.70
2022-09-23T09:39:46.516Z,0.90
2022-09-23T09:42:18.278Z,0.50
2022-09-23T09:44:49.521Z,1.20
2022-09-23T09:47:28.653Z,1.27
2022-09-23T09:49:59.043Z,1.40
2022-09-23T09:52:29.456Z,2.70
2022-09-23T09:54:59.116Z,1.63
2022-09-23T09:57:35.155Z,2.30
2022-09-23T10:00:19.206Z,1.97
2022-09-23T10:02:49.212Z,3.20
2022-09-23T10:05:25.632Z,2.50
2022-09-23T10:07:52.974Z,1.00
2022-09-23T10:10:32.539Z,1.90
2022-09-23T10:13:14.334Z,3.07
2022-09-23T10:15:44.918Z,1.90
2022-09-23T10:18:19.564Z,2.20
2022-09-23T10:20:47.381Z,1.20
2022-09-23T10:23:16.740Z,1.20
2022-09-23T10:25:44.584Z,1.57
2022-09-23T10:28:30.701Z,1.80
2022-09-23T10:31:05.184Z,0.60
2022-09-23T10:33:33.877Z,0.60
2022-09-23T10:36:01.424Z,0.93
2022-09-23T10:38:28.736Z,0.70
2022-09-23T10:41:15.119Z,0.87
2022-09-23T10:44:11.914Z,0.60
2022-09-23T10:46:41.477Z,1.23
2022-09-23T10:49:23.381Z,1.43
2022-09-23T10:51:56.325Z,0.70
2022-09-23T10:54:29.957Z,2.47
2022-09-23T10:57:02.419Z,1.10
2022-09-23T10:59:40.157Z,0.97
2022-09-23T11:02:16.086Z,2.83
2022-09-23T11:05:02.423Z,0.80
2022-09-23T11:07:37.195Z,0.70
2022-09-23T11:10:44.978Z,1.03
2022-09-23T11:13:15.002Z,3.57
2022-09-23T11:15:51.483Z,0.70
2022-09-23T11:18:36.984Z,0.80
2022-09-23T11:21:09.836Z,0.90
2022-09-23T11:23:46.069Z,0.93
2022-09-23T11:26:23.881Z,2.53
2022-09-23T11:29:00.104Z,1.93
2022-09-23T11:31:33.557Z,0.83
2022-09-23T11:34:17.832Z,1.37
2022-09-23T11:36:48.389Z,1.60
2022-09-23T11:39:25.684Z,2.70
2022-09-23T11:41:56.556Z,0.50
2022-09-23T11:44:27.677Z,0.60
2022-09-23T11:46:56.745Z,1.17
2022-09-23T11:49:27.313Z,1.03
2022-09-23T11:52:01.039Z,2.30
2022-09-23T11:54:30.840Z,0.57
2022-09-23T11:57:01.115Z,0.90
2022-09-23T11:59:40.308Z,0.93
2022-09-23T12:02:20.671Z,2.00
2022-09-23T12:04:58.334Z,0.60
2022-09-23T12:07:29.981Z,0.53
2022-09-23T12:10:00.506Z,1.10
2022-09-23T12:12:31.373Z,0.93
2022-09-23T12:15:02.340Z,0.70
2022-09-23T12:17:43.740Z,1.70
2022-09-23T12:20:30.418Z,0.67
2022-09-23T12:23:04.808Z,3.00
2022-09-23T12:25:38.345Z,0.80
2022-09-23T12:28:11.146Z,1.47
2022-09-23T12:30:38.964Z,1.57
2022-09-23T12:33:10.111Z,1.23
2022-09-23T12:35:41.202Z,1.57
2022-09-23T12:38:15.252Z,1.37
2022-09-23T12:40:44.422Z,4.80
2022-09-23T12:43:20.656Z,4.83
2022-09-23T12:45:48.452Z,6.60
2022-09-23T12:48:43.163Z,4.10
2022-09-23T12:51:17.915Z,4.73
2022-09-23T12:54:00.578Z,2.00
2022-09-23T12:56:29.813Z,8.60
2022-09-23T12:59:20.950Z,6.43
2022-09-23T13:01:48.383Z,5.93
2022-09-23T13:04:47.412Z,8.67
2022-09-23T13:07:16.969Z,3.97
2022-09-23T13:09:47.557Z,2.00
2022-09-23T13:12:18.335Z,8.10
2022-09-23T13:14:48.001Z,2.50
2022-09-23T13:17:24.235Z,1.87
2022-09-23T13:19:58.425Z,1.70
2022-09-23T13:22:41.374Z,2.10
2022-09-23T13:25:17.149Z,1.83
2022-09-23T13:27:48.561Z,1.80
2022-09-23T13:30:25.691Z,4.37
2022-09-23T13:33:00.704Z,2.60
2022-09-23T13:35:32.084Z,1.33
2022-09-23T13:37:59.455Z,2.23
2022-09-23T13:40:28.223Z,2.83
2022-09-23T13:42:58.509Z,3.03
2022-09-23T13:45:28.528Z,7.77
2022-09-23T13:48:01.034Z,2.60
2022-09-23T13:50:34.132Z,3.97
2022-09-23T13:53:04.069Z,3.03
2022-09-23T13:55:32.691Z,2.00
2022-09-23T13:58:04.648Z,3.63
2022-09-23T14:00:36.189Z,3.13
2022-09-23T14:03:04.053Z,4.37
2022-09-23T14:05:34.654Z,4.80
2022-09-23T14:08:02.612Z,2.47
2022-09-23T14:10:31.127Z,2.00
2022-09-23T14:12:59.232Z,3.13
2022-09-23T14:15:26.732Z,2.33
2022-09-23T14:17:59.510Z,6.40
2022-09-23T14:20:26.832Z,3.83
2022-09-23T14:23:06.828Z,2.10
2022-09-23T14:25:34.969Z,3.00
2022-09-23T14:28:02.524Z,2.20
2022-09-23T14:30:30.598Z,3.00
2022-09-23T14:32:59.813Z,2.37
2022-09-23T14:35:28.981Z,2.03
2022-09-23T14:38:14.904Z,1.80
2022-09-23T14:40:51.223Z,1.40
2022-09-23T14:43:21.956Z,1.67
2022-09-23T14:45:51.843Z,6.60
2022-09-23T14:48:23.242Z,2.37
2022-09-23T14:50:52.005Z,3.17
2022-09-23T14:53:40.232Z,2.77
2022-09-23T14:56:12.929Z,3.30
2022-09-23T14:58:49.458Z,3.53
2022-09-23T15:01:36.529Z,3.17
2022-09-23T15:04:16.233Z,2.27
2022-09-23T15:06:46.545Z,2.10
2022-09-23T15:09:20.057Z,2.57
2022-09-23T15:11:47.662Z,4.30
2022-09-23T15:14:36.663Z,3.70
2022-09-23T15:17:04.018Z,5.20
2022-09-23T15:19:35.134Z,3.67
2022-09-23T15:22:02.565Z,4.13
2022-09-23T15:24:37.953Z,2.50
2022-09-23T15:27:11.357Z,2.13
2022-09-23T15:29:39.480Z,4.67
2022-09-23T15:32:07.954Z,2.93
2022-09-23T15:34:37.095Z,6.23
2022-09-23T15:37:05.119Z,5.10
2022-09-23T15:39:36.362Z,2.30
2022-09-23T15:42:03.997Z,3.90
2022-09-23T15:44:31.652Z,3.83
2022-09-23T15:47:01.061Z,5.50
2022-09-23T15:49:29.986Z,3.93
2022-09-23T15:52:01.062Z,5.23
2022-09-23T15:54:28.755Z,5.07
2022-09-23T15:56:56.536Z,3.67
2022-09-23T15:59:24.080Z,4.43
2022-09-23T16:01:52.357Z,6.40
2022-09-23T16:04:19.821Z,3.43
2022-09-23T16:06:48.332Z,4.67
2022-09-23T16:09:17.038Z,2.40
2022-09-23T16:11:45.714Z,6.30
2022-09-23T16:14:14.581Z,3.33
2022-09-23T16:16:43.783Z,3.73
2022-09-23T16:19:11.379Z,4.63
2022-09-23T16:21:40.731Z,3.73
2022-09-23T16:24:13.744Z,4.03
2022-09-23T16:26:43.147Z,4.20
2022-09-23T16:29:11.471Z,4.30
2022-09-23T16:31:39.093Z,3.23
2022-09-23T16:34:07.733Z,4.60
2022-09-23T16:36:36.138Z,4.63
2022-09-23T16:39:04.696Z,5.00
2022-09-23T16:41:32.544Z,2.57
2022-09-23T16:44:02.452Z,4.67
2022-09-23T16:46:31.332Z,3.40
2022-09-23T16:48:59.184Z,5.20
2022-09-23T16:51:27.581Z,3.10
2022-09-23T16:53:56.690Z,3.13
2022-09-23T16:56:28.416Z,4.20
2022-09-23T16:58:56.808Z,3.80
2022-09-23T17:01:44.327Z,4.83
2022-09-23T17:04:11.829Z,3.67
2022-09-23T17:06:43.350Z,4.80
2022-09-23T17:09:10.709Z,6.27
2022-09-23T17:11:38.872Z,4.20
2022-09-23T17:14:06.306Z,4.70
2022-09-23T17:16:35.623Z,4.30
2022-09-23T17:19:06.380Z,5.77
2022-09-23T17:21:33.803Z,6.57
2022-09-23T17:24:01.144Z,12.50
2022-09-23T17:26:29.165Z,3.77
2022-09-23T17:28:57.194Z,4.03
2022-09-23T17:31:25.522Z,2.83
2022-09-23T17:33:54.511Z,3.63
2022-09-23T17:36:22.170Z,4.17
2022-09-23T17:38:53.427Z,3.47
2022-09-23T17:41:21.373Z,4.37
2022-09-23T17:43:48.842Z,3.43
2022-09-23T17:46:18.665Z,4.13
2022-09-23T17:48:46.647Z,4.67
2022-09-23T17:51:16.217Z,4.70
2022-09-23T17:53:45.014Z,3.33
2022-09-23T17:56:13.399Z,4.03
2022-09-23T17:58:41.175Z,4.43
2022-09-23T18:01:09.662Z,6.17
2022-09-23T18:03:37.344Z,4.83
2022-09-23T18:06:08.529Z,5.07
2022-09-23T18:08:37.371Z,5.13
2022-09-23T18:11:11.722Z,9.43
2022-09-23T18:13:39.180Z,8.63
2022-09-23T18:16:06.822Z,7.40
2022-09-23T18:18:34.237Z,7.23
2022-09-23T18:21:01.745Z,4.90
2022-09-23T18:23:29.206Z,6.00
2022-09-23T18:25:58.202Z,5.87
2022-09-23T18:28:25.600Z,6.43
2022-09-23T18:30:53.555Z,8.97
2022-09-23T18:33:21.192Z,6.57
2022-09-23T18:35:48.634Z,8.13
2022-09-23T18:38:16.000Z,7.93
2022-09-23T18:40:50.590Z,8.87
2022-09-23T18:43:19.897Z,9.93
2022-09-23T18:45:54.865Z,12.67
2022-09-23T18:48:39.708Z,8.37
2022-09-23T18:51:07.737Z,6.90
2022-09-23T18:53:35.857Z,8.03
2022-09-23T18:56:07.134Z,8.87
2022-09-23T18:58:35.838Z,12.03
2022-09-23T19:01:04.404Z,29.80
2022-09-23T19:03:31.917Z,33.87
2022-09-23T19:06:03.241Z,35.33
2022-09-23T19:08:31.090Z,21.33
2022-09-23T19:10:58.780Z,19.80
2022-09-23T19:13:26.129Z,15.97
2022-09-23T19:15:54.847Z,14.03
2022-09-23T19:18:22.234Z,12.20
2022-09-23T19:20:50.115Z,14.23
2022-09-23T19:23:17.475Z,9.77
2022-09-23T19:25:44.844Z,10.67
2022-09-23T19:28:12.290Z,8.33
2022-09-23T19:30:39.719Z,8.63
2022-09-23T19:33:09.861Z,8.03
2022-09-23T19:35:37.695Z,7.33
2022-09-23T19:38:05.339Z,7.70
2022-09-23T19:40:37.147Z,8.37
2022-09-23T19:43:05.481Z,8.87
2022-09-23T19:45:34.053Z,8.07
2022-09-23T19:48:02.027Z,6.30
2022-09-23T19:50:34.484Z,8.27
2022-09-23T19:53:04.725Z,7.83
2022-09-23T19:55:33.723Z,11.70
2022-09-23T19:58:01.377Z,7.93
2022-09-23T20:00:28.765Z,7.33
2022-09-23T20:02:56.713Z,7.30
2022-09-23T20:05:24.261Z,5.93
2022-09-23T20:07:53.041Z,4.57
2022-09-23T20:10:20.367Z,4.87
2022-09-23T20:12:47.726Z,7.63
2022-09-23T20:15:15.382Z,5.80
2022-09-23T20:17:42.825Z,16.80
2022-09-23T20:20:11.361Z,12.97
2022-09-23T20:22:39.012Z,13.07
2022-09-23T20:25:13.067Z,9.33
2022-09-23T20:27:39.766Z,11.50
2022-09-23T20:30:08.225Z,9.27
2022-09-23T20:32:36.664Z,6.43
2022-09-23T20:35:04.141Z,5.10
2022-09-23T20:37:32.956Z,6.53
2022-09-23T20:40:00.749Z,6.43
2022-09-23T20:42:29.550Z,6.30
2022-09-23T20:44:57.003Z,12.63
2022-09-23T20:47:25.106Z,14.27
2022-09-23T20:49:53.666Z,11.87
2022-09-23T20:52:22.128Z,7.73
2022-09-23T20:54:51.486Z,5.80
2022-09-23T20:57:20.383Z,7.83
2022-09-23T20:59:49.527Z,6.87
2022-09-23T21:02:17.203Z,4.70
2022-09-23T21:04:45.223Z,5.67
2022-09-23T21:07:12.565Z,4.60
2022-09-23T21:09:39.901Z,5.70
2022-09-23T21:12:07.249Z,5.80
2022-09-23T21:14:34.575Z,5.97
2022-09-23T21:17:03.489Z,6.47
2022-09-23T21:19:31.300Z,5.57
2022-09-23T21:21:58.810Z,4.83
2022-09-23T21:24:53.593Z,4.23
2022-09-23T21:27:13.448Z,3.90
2022-09-23T21:29:41.025Z,5.43
2022-09-23T21:32:10.301Z,4.10
2022-09-23T21:34:37.638Z,4.03
2022-09-23T21:37:05.869Z,6.63
2022-09-23T21:39:33.194Z,5.13
2022-09-23T21:42:01.446Z,6.40
2022-09-23T21:44:28.759Z,4.20
2022-09-23T21:46:57.481Z,6.73
2022-09-23T21:49:26.219Z,4.87
2022-09-23T21:51:55.066Z,3.37
2022-09-23T21:54:22.434Z,3.33
2022-09-23T21:56:49.757Z,7.23
2022-09-23T21:59:17.071Z,2.90
2022-09-23T22:01:45.001Z,4.20
2022-09-23T22:04:14.998Z,6.13
2022-09-23T22:06:43.844Z,6.87
2022-09-23T22:09:12.580Z,5.30
2022-09-23T22:11:58.638Z,3.63
2022-09-23T22:14:26.551Z,4.90
2022-09-23T22:16:57.435Z,3.33
2022-09-23T22:19:25.683Z,3.73
2022-09-23T22:21:55.790Z,4.10
2022-09-23T22:24:23.221Z,3.00
2022-09-23T22:26:50.814Z,5.20
2022-09-23T22:29:35.975Z,5.27
2022-09-23T22:32:18.100Z,3.90
2022-09-23T22:34:51.546Z,4.23
2022-09-23T22:37:21.547Z,5.43
2022-09-23T22:39:48.985Z,3.70
2022-09-23T22:42:16.309Z,5.17
2022-09-23T22:44:43.697Z,4.17
2022-09-23T22:47:11.262Z,4.03
2022-09-23T22:49:38.780Z,3.93
2022-09-23T22:52:07.802Z,3.13
2022-09-23T22:54:36.555Z,3.50
2022-09-23T22:57:05.089Z,5.17
2022-09-23T22:59:32.466Z,3.00
2022-09-23T23:02:00.419Z,3.17
2022-09-23T23:04:28.499Z,3.40
2022-09-23T23:06:56.116Z,3.23
2022-09-23T23:09:23.672Z,2.90
2022-09-23T23:11:52.335Z,3.40
2022-09-23T23:14:19.823Z,3.07
2022-09-23T23:16:47.230Z,3.07
2022-09-23T23:19:16.675Z,3.77
2022-09-23T23:21:44.693Z,3.97
2022-09-23T23:24:14.584Z,2.73
2022-09-23T23:26:41.943Z,3.33
2022-09-23T23:29:11.597Z,3.23
2022-09-23T23:31:39.010Z,3.80
2022-09-23T23:34:08.273Z,3.67
2022-09-23T23:36:35.719Z,2.83
2022-09-23T23:39:03.211Z,3.27
2022-09-23T23:41:31.195Z,2.83
2022-09-23T23:43:59.993Z,2.93
2022-09-23T23:46:29.834Z,3.23
2022-09-23T23:48:57.898Z,3.10
2022-09-23T23:51:25.897Z,3.50
2022-09-23T23:53:54.131Z,3.90
2022-09-23T23:56:22.766Z,2.90
2022-09-23T23:58:54.049Z,2.60
